UKBB/KBP METAR and TAF weather

Enter ICAO airport designator
Station Type Date Time Source
UKBB METAR 2019/06/17 07:30 UTC NOAA

UKBB 170730Z 16002MPS 080V210 CAVOK 27/17 Q1016 R88/CLRD// NOSIG


Station Type Date Time Source
UKBB Decoded METAR 2019/06/17 07:30 UTC NOAA

Boryspil, Ukraine (UKBB) 50-20N 030-58E 122M
Jun 17, 2019 - 03:30 AM EDT / 2019.06.17 0730 UTC
Wind: from the SSE (160 degrees) at 4 MPH (4 KT) (direction variable):0
Visibility: greater than 7 mile(s):0
Temperature: 80 F (27 C)
Dew Point: 62 F (17 C)
Relative Humidity: 54%
Pressure (altimeter): 30.00 in. Hg (1016 hPa)
ob: UKBB 170730Z 16002MPS 080V210 CAVOK 27/17 Q1016 R88/CLRD// NOSIG
cycle: 7

Station Type Date Time Source
UKBB TAF 2019/06/17 06:24 UTC NOAA

TAF TAF UKBB 170500Z 1706/1806 16003G08MPS 9999 SCT030 TX30/1712Z TN16/1802Z
TEMPO 1706/1709 2100 -SHRA SCT020CB PROB40
TEMPO 1706/1709 VRB09G14MPS -TSRA BKN015CB
TEMPO 1709/1721 VRB11G19MPS 1000 TSRAGR SQ BKN007 BKN015CB
TEMPO 1721/1804 34003G08MPS 2000 BR SCT006

Example: see airport list